sensor_id;sensor_type;location;lat;lon;timestamp;P1;durP1;ratioP1;P2;durP2;ratioP2
18653;SDS011;9456;47.824;16.228;2023-12-20T00:01:04;14.07;;;10.90;;
18653;SDS011;9456;47.824;16.228;2023-12-20T00:03:32;13.57;;;10.73;;
18653;SDS011;9456;47.824;16.228;2023-12-20T00:06:00;15.70;;;11.73;;
18653;SDS011;9456;47.824;16.228;2023-12-20T00:08:28;13.13;;;11.07;;
18653;SDS011;9456;47.824;16.228;2023-12-20T00:10:56;14.20;;;10.83;;
18653;SDS011;9456;47.824;16.228;2023-12-20T00:13:24;12.47;;;10.60;;
18653;SDS011;9456;47.824;16.228;2023-12-20T00:15:52;13.90;;;10.97;;
18653;SDS011;9456;47.824;16.228;2023-12-20T00:18:20;14.47;;;10.93;;
18653;SDS011;9456;47.824;16.228;2023-12-20T00:20:48;13.57;;;10.33;;
18653;SDS011;9456;47.824;16.228;2023-12-20T00:23:16;14.37;;;10.90;;
18653;SDS011;9456;47.824;16.228;2023-12-20T00:25:44;12.50;;;11.20;;
18653;SDS011;9456;47.824;16.228;2023-12-20T00:28:12;14.20;;;10.77;;
18653;SDS011;9456;47.824;16.228;2023-12-20T00:30:40;11.70;;;10.27;;
18653;SDS011;9456;47.824;16.228;2023-12-20T00:33:08;13.53;;;10.57;;
18653;SDS011;9456;47.824;16.228;2023-12-20T00:35:36;14.10;;;10.37;;
18653;SDS011;9456;47.824;16.228;2023-12-20T00:38:04;13.93;;;10.60;;
18653;SDS011;9456;47.824;16.228;2023-12-20T00:40:32;10.97;;;9.73;;
18653;SDS011;9456;47.824;16.228;2023-12-20T00:43:00;13.20;;;10.67;;
18653;SDS011;9456;47.824;16.228;2023-12-20T00:45:28;12.17;;;10.07;;
18653;SDS011;9456;47.824;16.228;2023-12-20T00:47:56;13.47;;;9.87;;
18653;SDS011;9456;47.824;16.228;2023-12-20T00:50:24;10.63;;;9.33;;
18653;SDS011;9456;47.824;16.228;2023-12-20T00:52:52;11.10;;;9.20;;
18653;SDS011;9456;47.824;16.228;2023-12-20T00:55:21;10.03;;;8.43;;
18653;SDS011;9456;47.824;16.228;2023-12-20T00:57:48;11.57;;;9.77;;
18653;SDS011;9456;47.824;16.228;2023-12-20T01:00:17;11.73;;;9.77;;
18653;SDS011;9456;47.824;16.228;2023-12-20T01:02:45;10.90;;;9.00;;
18653;SDS011;9456;47.824;16.228;2023-12-20T01:05:14;11.80;;;9.33;;
18653;SDS011;9456;47.824;16.228;2023-12-20T01:07:41;11.80;;;8.87;;
18653;SDS011;9456;47.824;16.228;2023-12-20T01:10:09;10.33;;;9.20;;
18653;SDS011;9456;47.824;16.228;2023-12-20T01:12:37;11.87;;;10.13;;
18653;SDS011;9456;47.824;16.228;2023-12-20T01:15:06;12.87;;;10.43;;
18653;SDS011;9456;47.824;16.228;2023-12-20T01:17:34;13.17;;;10.23;;
18653;SDS011;9456;47.824;16.228;2023-12-20T01:20:03;12.93;;;11.07;;
18653;SDS011;9456;47.824;16.228;2023-12-20T01:22:31;15.63;;;12.17;;
18653;SDS011;9456;47.824;16.228;2023-12-20T01:25:05;14.73;;;12.57;;
18653;SDS011;9456;47.824;16.228;2023-12-20T01:27:33;16.80;;;13.10;;
18653;SDS011;9456;47.824;16.228;2023-12-20T01:30:02;15.80;;;12.93;;
18653;SDS011;9456;47.824;16.228;2023-12-20T01:32:30;15.87;;;12.73;;
18653;SDS011;9456;47.824;16.228;2023-12-20T01:34:58;16.27;;;12.10;;
18653;SDS011;9456;47.824;16.228;2023-12-20T01:37:26;13.63;;;11.03;;
18653;SDS011;9456;47.824;16.228;2023-12-20T01:39:54;16.13;;;12.27;;
18653;SDS011;9456;47.824;16.228;2023-12-20T01:42:22;15.37;;;11.33;;
18653;SDS011;9456;47.824;16.228;2023-12-20T01:44:50;15.13;;;11.77;;
18653;SDS011;9456;47.824;16.228;2023-12-20T01:47:18;14.30;;;10.67;;
18653;SDS011;9456;47.824;16.228;2023-12-20T01:49:46;10.67;;;9.17;;
18653;SDS011;9456;47.824;16.228;2023-12-20T01:52:14;12.27;;;9.30;;
18653;SDS011;9456;47.824;16.228;2023-12-20T01:54:42;9.70;;;8.70;;
18653;SDS011;9456;47.824;16.228;2023-12-20T01:57:10;10.93;;;9.00;;
18653;SDS011;9456;47.824;16.228;2023-12-20T01:59:38;8.57;;;7.63;;
18653;SDS011;9456;47.824;16.228;2023-12-20T02:02:06;10.47;;;8.20;;
18653;SDS011;9456;47.824;16.228;2023-12-20T02:04:34;8.80;;;7.60;;
18653;SDS011;9456;47.824;16.228;2023-12-20T02:07:03;10.83;;;7.43;;
18653;SDS011;9456;47.824;16.228;2023-12-20T02:09:31;10.90;;;7.90;;
18653;SDS011;9456;47.824;16.228;2023-12-20T02:11:59;8.67;;;7.63;;
18653;SDS011;9456;47.824;16.228;2023-12-20T02:14:27;9.67;;;7.97;;
18653;SDS011;9456;47.824;16.228;2023-12-20T02:16:55;10.63;;;8.60;;
18653;SDS011;9456;47.824;16.228;2023-12-20T02:19:23;11.90;;;10.70;;
18653;SDS011;9456;47.824;16.228;2023-12-20T02:21:51;14.30;;;12.70;;
18653;SDS011;9456;47.824;16.228;2023-12-20T02:24:19;18.63;;;16.70;;
18653;SDS011;9456;47.824;16.228;2023-12-20T02:26:47;19.80;;;17.67;;
18653;SDS011;9456;47.824;16.228;2023-12-20T02:29:15;18.63;;;16.63;;
18653;SDS011;9456;47.824;16.228;2023-12-20T02:31:44;19.77;;;17.77;;
18653;SDS011;9456;47.824;16.228;2023-12-20T02:34:12;20.87;;;17.80;;
18653;SDS011;9456;47.824;16.228;2023-12-20T02:36:40;17.70;;;15.90;;
18653;SDS011;9456;47.824;16.228;2023-12-20T02:39:08;17.23;;;15.43;;
18653;SDS011;9456;47.824;16.228;2023-12-20T02:41:36;18.10;;;16.30;;
18653;SDS011;9456;47.824;16.228;2023-12-20T02:44:04;16.67;;;14.77;;
18653;SDS011;9456;47.824;16.228;2023-12-20T02:46:32;17.43;;;15.63;;
18653;SDS011;9456;47.824;16.228;2023-12-20T02:49:00;16.27;;;14.57;;
18653;SDS011;9456;47.824;16.228;2023-12-20T02:51:28;18.03;;;15.10;;
18653;SDS011;9456;47.824;16.228;2023-12-20T02:53:56;17.30;;;15.47;;
18653;SDS011;9456;47.824;16.228;2023-12-20T02:56:24;17.37;;;15.27;;
18653;SDS011;9456;47.824;16.228;2023-12-20T02:58:52;18.17;;;16.17;;
18653;SDS011;9456;47.824;16.228;2023-12-20T03:01:20;17.60;;;15.83;;
18653;SDS011;9456;47.824;16.228;2023-12-20T03:03:49;17.83;;;15.80;;
18653;SDS011;9456;47.824;16.228;2023-12-20T03:06:18;17.27;;;15.50;;
18653;SDS011;9456;47.824;16.228;2023-12-20T03:08:47;17.50;;;15.70;;
18653;SDS011;9456;47.824;16.228;2023-12-20T03:11:16;16.93;;;15.10;;
18653;SDS011;9456;47.824;16.228;2023-12-20T03:13:45;22.83;;;16.00;;
18653;SDS011;9456;47.824;16.228;2023-12-20T03:16:13;20.90;;;15.67;;
18653;SDS011;9456;47.824;16.228;2023-12-20T03:18:44;19.27;;;16.63;;
18653;SDS011;9456;47.824;16.228;2023-12-20T03:21:13;20.60;;;16.37;;
18653;SDS011;9456;47.824;16.228;2023-12-20T03:23:41;20.47;;;15.57;;
18653;SDS011;9456;47.824;16.228;2023-12-20T03:26:10;17.40;;;15.07;;
18653;SDS011;9456;47.824;16.228;2023-12-20T03:28:39;17.63;;;15.73;;
18653;SDS011;9456;47.824;16.228;2023-12-20T03:31:08;20.97;;;16.93;;
18653;SDS011;9456;47.824;16.228;2023-12-20T03:33:37;18.37;;;16.07;;
18653;SDS011;9456;47.824;16.228;2023-12-20T03:36:06;18.90;;;16.43;;
18653;SDS011;9456;47.824;16.228;2023-12-20T03:38:35;21.13;;;17.53;;
18653;SDS011;9456;47.824;16.228;2023-12-20T03:41:04;25.60;;;16.93;;
18653;SDS011;9456;47.824;16.228;2023-12-20T03:43:33;19.10;;;17.00;;
18653;SDS011;9456;47.824;16.228;2023-12-20T03:46:02;19.20;;;16.37;;
18653;SDS011;9456;47.824;16.228;2023-12-20T03:48:31;21.07;;;17.07;;
18653;SDS011;9456;47.824;16.228;2023-12-20T03:51:00;19.97;;;17.57;;
18653;SDS011;9456;47.824;16.228;2023-12-20T03:53:29;19.83;;;17.73;;
18653;SDS011;9456;47.824;16.228;2023-12-20T03:55:58;19.60;;;17.50;;
18653;SDS011;9456;47.824;16.228;2023-12-20T03:58:26;19.40;;;16.87;;
18653;SDS011;9456;47.824;16.228;2023-12-20T04:00:55;19.87;;;17.60;;
18653;SDS011;9456;47.824;16.228;2023-12-20T04:03:24;18.73;;;15.73;;
18653;SDS011;9456;47.824;16.228;2023-12-20T04:05:53;16.67;;;14.83;;
18653;SDS011;9456;47.824;16.228;2023-12-20T04:08:22;17.30;;;15.37;;
18653;SDS011;9456;47.824;16.228;2023-12-20T04:10:51;16.50;;;14.37;;
18653;SDS011;9456;47.824;16.228;2023-12-20T04:13:20;16.10;;;14.30;;
18653;SDS011;9456;47.824;16.228;2023-12-20T04:15:49;17.40;;;15.30;;
18653;SDS011;9456;47.824;16.228;2023-12-20T04:18:17;15.50;;;13.87;;
18653;SDS011;9456;47.824;16.228;2023-12-20T04:20:46;16.00;;;14.03;;
18653;SDS011;9456;47.824;16.228;2023-12-20T04:23:15;15.17;;;13.67;;
18653;SDS011;9456;47.824;16.228;2023-12-20T04:25:44;18.50;;;16.10;;
18653;SDS011;9456;47.824;16.228;2023-12-20T04:28:13;15.57;;;13.83;;
18653;SDS011;9456;47.824;16.228;2023-12-20T04:30:42;35.60;;;23.83;;
18653;SDS011;9456;47.824;16.228;2023-12-20T04:33:11;21.53;;;16.83;;
18653;SDS011;9456;47.824;16.228;2023-12-20T04:35:40;20.53;;;17.77;;
18653;SDS011;9456;47.824;16.228;2023-12-20T04:38:10;17.03;;;15.27;;
18653;SDS011;9456;47.824;16.228;2023-12-20T04:40:38;25.90;;;23.20;;
18653;SDS011;9456;47.824;16.228;2023-12-20T04:43:07;28.70;;;25.70;;
18653;SDS011;9456;47.824;16.228;2023-12-20T04:45:36;29.50;;;26.40;;
18653;SDS011;9456;47.824;16.228;2023-12-20T04:48:06;21.20;;;18.90;;
18653;SDS011;9456;47.824;16.228;2023-12-20T04:50:35;17.70;;;15.80;;
18653;SDS011;9456;47.824;16.228;2023-12-20T04:53:04;20.87;;;18.53;;
18653;SDS011;9456;47.824;16.228;2023-12-20T04:55:33;18.83;;;16.80;;
18653;SDS011;9456;47.824;16.228;2023-12-20T04:58:01;18.60;;;16.60;;
18653;SDS011;9456;47.824;16.228;2023-12-20T05:00:30;30.17;;;25.50;;
18653;SDS011;9456;47.824;16.228;2023-12-20T05:03:00;23.77;;;21.10;;
18653;SDS011;9456;47.824;16.228;2023-12-20T05:05:28;22.33;;;19.67;;
18653;SDS011;9456;47.824;16.228;2023-12-20T05:07:57;21.67;;;19.37;;
18653;SDS011;9456;47.824;16.228;2023-12-20T05:10:26;21.67;;;19.20;;
18653;SDS011;9456;47.824;16.228;2023-12-20T05:12:55;21.33;;;18.83;;
18653;SDS011;9456;47.824;16.228;2023-12-20T05:15:24;19.23;;;17.17;;
18653;SDS011;9456;47.824;16.228;2023-12-20T05:17:53;20.57;;;18.03;;
18653;SDS011;9456;47.824;16.228;2023-12-20T05:20:22;19.30;;;17.20;;
18653;SDS011;9456;47.824;16.228;2023-12-20T05:22:50;18.70;;;16.70;;
18653;SDS011;9456;47.824;16.228;2023-12-20T05:25:19;17.00;;;15.20;;
18653;SDS011;9456;47.824;16.228;2023-12-20T05:27:48;16.60;;;14.80;;
18653;SDS011;9456;47.824;16.228;2023-12-20T05:30:17;18.67;;;16.00;;
18653;SDS011;9456;47.824;16.228;2023-12-20T05:32:46;22.43;;;18.00;;
18653;SDS011;9456;47.824;16.228;2023-12-20T05:35:15;23.50;;;18.23;;
18653;SDS011;9456;47.824;16.228;2023-12-20T05:37:44;20.50;;;17.83;;
18653;SDS011;9456;47.824;16.228;2023-12-20T05:40:13;17.93;;;16.03;;
18653;SDS011;9456;47.824;16.228;2023-12-20T05:42:42;17.50;;;15.70;;
18653;SDS011;9456;47.824;16.228;2023-12-20T05:45:11;19.80;;;14.73;;
18653;SDS011;9456;47.824;16.228;2023-12-20T05:47:40;17.50;;;14.13;;
18653;SDS011;9456;47.824;16.228;2023-12-20T05:50:09;16.67;;;14.83;;
18653;SDS011;9456;47.824;16.228;2023-12-20T05:52:38;19.77;;;16.53;;
18653;SDS011;9456;47.824;16.228;2023-12-20T05:55:07;18.07;;;16.10;;
18653;SDS011;9456;47.824;16.228;2023-12-20T05:57:36;23.37;;;17.80;;
18653;SDS011;9456;47.824;16.228;2023-12-20T06:00:05;17.70;;;15.23;;
18653;SDS011;9456;47.824;16.228;2023-12-20T06:02:35;17.70;;;15.63;;
18653;SDS011;9456;47.824;16.228;2023-12-20T06:05:05;19.30;;;16.63;;
18653;SDS011;9456;47.824;16.228;2023-12-20T06:07:34;19.60;;;16.90;;
18653;SDS011;9456;47.824;16.228;2023-12-20T06:10:04;19.20;;;17.10;;
18653;SDS011;9456;47.824;16.228;2023-12-20T06:12:33;17.40;;;15.53;;
18653;SDS011;9456;47.824;16.228;2023-12-20T06:15:03;18.63;;;15.40;;
18653;SDS011;9456;47.824;16.228;2023-12-20T06:17:33;17.57;;;15.50;;
18653;SDS011;9456;47.824;16.228;2023-12-20T06:20:02;17.80;;;15.87;;
18653;SDS011;9456;47.824;16.228;2023-12-20T06:22:32;18.00;;;15.83;;
18653;SDS011;9456;47.824;16.228;2023-12-20T06:25:02;17.80;;;15.30;;
18653;SDS011;9456;47.824;16.228;2023-12-20T06:27:32;17.03;;;15.17;;
18653;SDS011;9456;47.824;16.228;2023-12-20T06:30:01;18.00;;;15.53;;
18653;SDS011;9456;47.824;16.228;2023-12-20T06:32:29;18.07;;;16.00;;
18653;SDS011;9456;47.824;16.228;2023-12-20T06:34:58;18.97;;;16.80;;
18653;SDS011;9456;47.824;16.228;2023-12-20T06:37:27;17.47;;;15.67;;
18653;SDS011;9456;47.824;16.228;2023-12-20T06:39:56;17.43;;;15.20;;
18653;SDS011;9456;47.824;16.228;2023-12-20T06:42:25;28.47;;;23.53;;
18653;SDS011;9456;47.824;16.228;2023-12-20T06:44:54;29.00;;;23.97;;
18653;SDS011;9456;47.824;16.228;2023-12-20T06:47:23;23.10;;;19.97;;
18653;SDS011;9456;47.824;16.228;2023-12-20T06:49:52;21.07;;;18.80;;
18653;SDS011;9456;47.824;16.228;2023-12-20T06:52:21;26.27;;;20.87;;
18653;SDS011;9456;47.824;16.228;2023-12-20T06:54:50;17.90;;;16.00;;
18653;SDS011;9456;47.824;16.228;2023-12-20T06:57:19;18.20;;;16.03;;
18653;SDS011;9456;47.824;16.228;2023-12-20T06:59:48;18.37;;;16.30;;
18653;SDS011;9456;47.824;16.228;2023-12-20T07:02:17;18.30;;;15.03;;
18653;SDS011;9456;47.824;16.228;2023-12-20T07:04:45;16.13;;;13.83;;
18653;SDS011;9456;47.824;16.228;2023-12-20T07:07:14;20.10;;;15.83;;
18653;SDS011;9456;47.824;16.228;2023-12-20T07:09:43;16.60;;;14.80;;
18653;SDS011;9456;47.824;16.228;2023-12-20T07:12:12;18.03;;;14.13;;
18653;SDS011;9456;47.824;16.228;2023-12-20T07:14:41;16.00;;;13.27;;
18653;SDS011;9456;47.824;16.228;2023-12-20T07:17:10;13.83;;;12.20;;
18653;SDS011;9456;47.824;16.228;2023-12-20T07:19:39;15.47;;;13.70;;
18653;SDS011;9456;47.824;16.228;2023-12-20T07:22:09;13.13;;;11.80;;
18653;SDS011;9456;47.824;16.228;2023-12-20T07:24:40;13.13;;;11.67;;
18653;SDS011;9456;47.824;16.228;2023-12-20T07:27:08;12.63;;;10.47;;
18653;SDS011;9456;47.824;16.228;2023-12-20T07:29:37;11.43;;;10.17;;
18653;SDS011;9456;47.824;16.228;2023-12-20T07:32:07;12.63;;;11.33;;
18653;SDS011;9456;47.824;16.228;2023-12-20T07:34:35;12.33;;;11.03;;
18653;SDS011;9456;47.824;16.228;2023-12-20T07:37:04;13.97;;;11.00;;
18653;SDS011;9456;47.824;16.228;2023-12-20T07:39:33;10.67;;;9.47;;
18653;SDS011;9456;47.824;16.228;2023-12-20T07:42:02;10.27;;;8.73;;
18653;SDS011;9456;47.824;16.228;2023-12-20T07:44:31;12.40;;;9.30;;
18653;SDS011;9456;47.824;16.228;2023-12-20T07:47:00;9.77;;;8.37;;
18653;SDS011;9456;47.824;16.228;2023-12-20T07:49:29;8.80;;;7.90;;
18653;SDS011;9456;47.824;16.228;2023-12-20T07:51:59;8.10;;;6.87;;
18653;SDS011;9456;47.824;16.228;2023-12-20T07:54:27;7.30;;;6.50;;
18653;SDS011;9456;47.824;16.228;2023-12-20T07:56:56;12.00;;;7.10;;
18653;SDS011;9456;47.824;16.228;2023-12-20T07:59:26;13.37;;;7.00;;
18653;SDS011;9456;47.824;16.228;2023-12-20T08:01:56;8.33;;;6.87;;
18653;SDS011;9456;47.824;16.228;2023-12-20T08:04:24;8.43;;;6.87;;
18653;SDS011;9456;47.824;16.228;2023-12-20T08:06:53;9.50;;;7.07;;
18653;SDS011;9456;47.824;16.228;2023-12-20T08:09:25;10.73;;;6.23;;
18653;SDS011;9456;47.824;16.228;2023-12-20T08:11:54;7.40;;;5.80;;
18653;SDS011;9456;47.824;16.228;2023-12-20T08:14:22;5.80;;;4.93;;
18653;SDS011;9456;47.824;16.228;2023-12-20T08:16:53;6.23;;;4.43;;
18653;SDS011;9456;47.824;16.228;2023-12-20T08:19:22;7.57;;;6.30;;
18653;SDS011;9456;47.824;16.228;2023-12-20T08:21:52;9.90;;;5.37;;
18653;SDS011;9456;47.824;16.228;2023-12-20T08:24:21;4.90;;;4.43;;
18653;SDS011;9456;47.824;16.228;2023-12-20T08:26:50;7.63;;;5.10;;
18653;SDS011;9456;47.824;16.228;2023-12-20T08:29:19;5.07;;;4.23;;
18653;SDS011;9456;47.824;16.228;2023-12-20T08:31:52;6.60;;;5.77;;
18653;SDS011;9456;47.824;16.228;2023-12-20T08:34:21;6.43;;;4.27;;
18653;SDS011;9456;47.824;16.228;2023-12-20T08:36:52;4.40;;;3.73;;
18653;SDS011;9456;47.824;16.228;2023-12-20T08:39:21;4.20;;;2.30;;
18653;SDS011;9456;47.824;16.228;2023-12-20T08:41:50;2.83;;;1.80;;
18653;SDS011;9456;47.824;16.228;2023-12-20T08:44:19;1.33;;;1.10;;
18653;SDS011;9456;47.824;16.228;2023-12-20T08:46:48;1.20;;;1.20;;
18653;SDS011;9456;47.824;16.228;2023-12-20T08:49:17;0.83;;;0.83;;
18653;SDS011;9456;47.824;16.228;2023-12-20T08:51:45;0.67;;;0.67;;
18653;SDS011;9456;47.824;16.228;2023-12-20T08:54:14;0.77;;;0.77;;
18653;SDS011;9456;47.824;16.228;2023-12-20T08:56:43;0.70;;;0.70;;
18653;SDS011;9456;47.824;16.228;2023-12-20T08:59:12;0.80;;;0.50;;
18653;SDS011;9456;47.824;16.228;2023-12-20T09:01:42;0.70;;;0.70;;
18653;SDS011;9456;47.824;16.228;2023-12-20T09:04:11;0.60;;;0.60;;
18653;SDS011;9456;47.824;16.228;2023-12-20T09:06:40;2.70;;;2.50;;
18653;SDS011;9456;47.824;16.228;2023-12-20T09:09:09;2.17;;;1.00;;
18653;SDS011;9456;47.824;16.228;2023-12-20T09:11:38;0.63;;;0.63;;
18653;SDS011;9456;47.824;16.228;2023-12-20T09:14:07;0.87;;;0.87;;
18653;SDS011;9456;47.824;16.228;2023-12-20T09:16:36;1.33;;;0.83;;
18653;SDS011;9456;47.824;16.228;2023-12-20T09:19:05;0.80;;;0.80;;
18653;SDS011;9456;47.824;16.228;2023-12-20T09:21:34;0.50;;;0.50;;
18653;SDS011;9456;47.824;16.228;2023-12-20T09:24:03;0.60;;;0.60;;
18653;SDS011;9456;47.824;16.228;2023-12-20T09:26:33;0.87;;;0.87;;
18653;SDS011;9456;47.824;16.228;2023-12-20T09:29:01;0.60;;;0.60;;
18653;SDS011;9456;47.824;16.228;2023-12-20T09:31:32;1.77;;;1.67;;
18653;SDS011;9456;47.824;16.228;2023-12-20T09:34:01;0.50;;;0.50;;
18653;SDS011;9456;47.824;16.228;2023-12-20T09:36:30;0.40;;;0.40;;
18653;SDS011;9456;47.824;16.228;2023-12-20T09:38:59;0.40;;;0.40;;
18653;SDS011;9456;47.824;16.228;2023-12-20T09:41:28;0.20;;;0.20;;
18653;SDS011;9456;47.824;16.228;2023-12-20T09:43:57;0.77;;;0.60;;
18653;SDS011;9456;47.824;16.228;2023-12-20T09:46:26;1.20;;;0.63;;
18653;SDS011;9456;47.824;16.228;2023-12-20T09:48:55;0.47;;;0.47;;
18653;SDS011;9456;47.824;16.228;2023-12-20T09:51:24;1.00;;;0.40;;
18653;SDS011;9456;47.824;16.228;2023-12-20T09:53:52;1.70;;;0.60;;
18653;SDS011;9456;47.824;16.228;2023-12-20T09:56:21;0.97;;;0.97;;
18653;SDS011;9456;47.824;16.228;2023-12-20T09:58:50;0.37;;;0.33;;
18653;SDS011;9456;47.824;16.228;2023-12-20T10:01:19;0.43;;;0.43;;
18653;SDS011;9456;47.824;16.228;2023-12-20T10:03:48;0.53;;;0.53;;
18653;SDS011;9456;47.824;16.228;2023-12-20T10:06:17;0.53;;;0.53;;
18653;SDS011;9456;47.824;16.228;2023-12-20T10:08:46;0.80;;;0.80;;
18653;SDS011;9456;47.824;16.228;2023-12-20T10:11:14;1.57;;;0.70;;
18653;SDS011;9456;47.824;16.228;2023-12-20T10:13:43;0.50;;;0.50;;
18653;SDS011;9456;47.824;16.228;2023-12-20T10:16:12;1.27;;;1.17;;
18653;SDS011;9456;47.824;16.228;2023-12-20T10:18:41;0.63;;;0.63;;
18653;SDS011;9456;47.824;16.228;2023-12-20T10:21:10;1.03;;;1.03;;
18653;SDS011;9456;47.824;16.228;2023-12-20T10:23:39;0.30;;;0.30;;
18653;SDS011;9456;47.824;16.228;2023-12-20T10:26:08;0.40;;;0.40;;
18653;SDS011;9456;47.824;16.228;2023-12-20T10:28:39;0.30;;;0.30;;
18653;SDS011;9456;47.824;16.228;2023-12-20T10:31:07;0.30;;;0.30;;
18653;SDS011;9456;47.824;16.228;2023-12-20T10:33:36;0.40;;;0.40;;
18653;SDS011;9456;47.824;16.228;2023-12-20T10:36:06;0.60;;;0.60;;
18653;SDS011;9456;47.824;16.228;2023-12-20T10:38:36;16.10;;;14.40;;
18653;SDS011;9456;47.824;16.228;2023-12-20T10:41:05;2.60;;;2.40;;
18653;SDS011;9456;47.824;16.228;2023-12-20T10:43:33;0.20;;;0.20;;
18653;SDS011;9456;47.824;16.228;2023-12-20T10:46:04;0.30;;;0.30;;
18653;SDS011;9456;47.824;16.228;2023-12-20T10:48:33;0.30;;;0.30;;
18653;SDS011;9456;47.824;16.228;2023-12-20T10:51:02;1.17;;;1.13;;
18653;SDS011;9456;47.824;16.228;2023-12-20T10:53:31;2.60;;;2.40;;
18653;SDS011;9456;47.824;16.228;2023-12-20T10:56:01;1.10;;;1.10;;
18653;SDS011;9456;47.824;16.228;2023-12-20T10:58:30;4.87;;;1.50;;
18653;SDS011;9456;47.824;16.228;2023-12-20T11:01:00;0.70;;;0.57;;
18653;SDS011;9456;47.824;16.228;2023-12-20T11:03:29;2.90;;;2.00;;
18653;SDS011;9456;47.824;16.228;2023-12-20T11:05:59;1.17;;;1.17;;
18653;SDS011;9456;47.824;16.228;2023-12-20T11:08:31;3.10;;;2.10;;
18653;SDS011;9456;47.824;16.228;2023-12-20T11:10:59;2.43;;;2.23;;
18653;SDS011;9456;47.824;16.228;2023-12-20T11:13:28;7.30;;;5.93;;
18653;SDS011;9456;47.824;16.228;2023-12-20T11:15:57;3.77;;;3.37;;
18653;SDS011;9456;47.824;16.228;2023-12-20T11:18:29;1.93;;;1.73;;
18653;SDS011;9456;47.824;16.228;2023-12-20T11:21:01;1.33;;;1.23;;
18653;SDS011;9456;47.824;16.228;2023-12-20T11:23:31;1.53;;;1.43;;
18653;SDS011;9456;47.824;16.228;2023-12-20T11:26:00;2.10;;;2.00;;
18653;SDS011;9456;47.824;16.228;2023-12-20T11:28:29;4.60;;;4.20;;
18653;SDS011;9456;47.824;16.228;2023-12-20T11:30:58;2.30;;;2.10;;
18653;SDS011;9456;47.824;16.228;2023-12-20T11:33:29;0.70;;;0.70;;
18653;SDS011;9456;47.824;16.228;2023-12-20T11:35:56;0.63;;;0.20;;
18653;SDS011;9456;47.824;16.228;2023-12-20T11:38:27;1.07;;;0.20;;
18653;SDS011;9456;47.824;16.228;2023-12-20T11:40:56;1.23;;;1.17;;
18653;SDS011;9456;47.824;16.228;2023-12-20T11:43:31;0.70;;;0.70;;
18653;SDS011;9456;47.824;16.228;2023-12-20T11:46:06;0.50;;;0.50;;
18653;SDS011;9456;47.824;16.228;2023-12-20T11:48:36;0.30;;;0.30;;
18653;SDS011;9456;47.824;16.228;2023-12-20T11:51:09;0.23;;;0.23;;
18653;SDS011;9456;47.824;16.228;2023-12-20T11:53:40;1.03;;;0.20;;
18653;SDS011;9456;47.824;16.228;2023-12-20T11:56:09;0.23;;;0.23;;
18653;SDS011;9456;47.824;16.228;2023-12-20T11:58:38;0.60;;;0.60;;
18653;SDS011;9456;47.824;16.228;2023-12-20T12:01:07;0.80;;;0.80;;
18653;SDS011;9456;47.824;16.228;2023-12-20T12:03:36;0.40;;;0.40;;
18653;SDS011;9456;47.824;16.228;2023-12-20T12:06:05;1.90;;;0.40;;
18653;SDS011;9456;47.824;16.228;2023-12-20T12:08:34;0.90;;;0.30;;
18653;SDS011;9456;47.824;16.228;2023-12-20T12:11:04;0.40;;;0.40;;
18653;SDS011;9456;47.824;16.228;2023-12-20T12:13:33;0.30;;;0.30;;
18653;SDS011;9456;47.824;16.228;2023-12-20T12:16:02;0.60;;;0.60;;
18653;SDS011;9456;47.824;16.228;2023-12-20T12:18:31;0.40;;;0.27;;
18653;SDS011;9456;47.824;16.228;2023-12-20T12:21:03;0.23;;;0.23;;
18653;SDS011;9456;47.824;16.228;2023-12-20T12:23:32;0.20;;;0.20;;
18653;SDS011;9456;47.824;16.228;2023-12-20T12:26:01;0.23;;;0.23;;
18653;SDS011;9456;47.824;16.228;2023-12-20T12:28:34;0.70;;;0.70;;
18653;SDS011;9456;47.824;16.228;2023-12-20T12:31:01;0.80;;;0.80;;
18653;SDS011;9456;47.824;16.228;2023-12-20T12:33:30;1.80;;;0.40;;
18653;SDS011;9456;47.824;16.228;2023-12-20T12:35:59;0.50;;;0.30;;
18653;SDS011;9456;47.824;16.228;2023-12-20T12:38:28;0.30;;;0.30;;
18653;SDS011;9456;47.824;16.228;2023-12-20T12:40:58;2.00;;;1.90;;
18653;SDS011;9456;47.824;16.228;2023-12-20T12:43:27;0.60;;;0.60;;
18653;SDS011;9456;47.824;16.228;2023-12-20T12:45:55;1.20;;;1.20;;
18653;SDS011;9456;47.824;16.228;2023-12-20T12:48:24;0.80;;;0.80;;
18653;SDS011;9456;47.824;16.228;2023-12-20T12:50:53;0.57;;;0.30;;
18653;SDS011;9456;47.824;16.228;2023-12-20T12:53:23;0.33;;;0.33;;
18653;SDS011;9456;47.824;16.228;2023-12-20T12:55:52;0.20;;;0.20;;
18653;SDS011;9456;47.824;16.228;2023-12-20T12:58:21;0.40;;;0.40;;
18653;SDS011;9456;47.824;16.228;2023-12-20T13:00:50;0.10;;;0.10;;
18653;SDS011;9456;47.824;16.228;2023-12-20T13:03:20;1.70;;;0.40;;
18653;SDS011;9456;47.824;16.228;2023-12-20T13:05:49;0.70;;;0.50;;
18653;SDS011;9456;47.824;16.228;2023-12-20T13:08:18;1.20;;;0.60;;
18653;SDS011;9456;47.824;16.228;2023-12-20T13:10:47;0.60;;;0.60;;
18653;SDS011;9456;47.824;16.228;2023-12-20T13:13:15;1.20;;;0.33;;
18653;SDS011;9456;47.824;16.228;2023-12-20T13:15:44;0.20;;;0.20;;
18653;SDS011;9456;47.824;16.228;2023-12-20T13:18:13;0.27;;;0.27;;
18653;SDS011;9456;47.824;16.228;2023-12-20T13:20:42;0.20;;;0.20;;
18653;SDS011;9456;47.824;16.228;2023-12-20T13:23:11;0.20;;;0.20;;
18653;SDS011;9456;47.824;16.228;2023-12-20T13:25:40;0.20;;;0.20;;
18653;SDS011;9456;47.824;16.228;2023-12-20T13:28:09;1.90;;;0.40;;
18653;SDS011;9456;47.824;16.228;2023-12-20T13:30:38;0.80;;;0.80;;
18653;SDS011;9456;47.824;16.228;2023-12-20T13:33:07;1.77;;;0.87;;
18653;SDS011;9456;47.824;16.228;2023-12-20T13:35:36;0.47;;;0.47;;
18653;SDS011;9456;47.824;16.228;2023-12-20T13:38:04;0.83;;;0.60;;
18653;SDS011;9456;47.824;16.228;2023-12-20T13:40:33;0.83;;;0.37;;
18653;SDS011;9456;47.824;16.228;2023-12-20T13:43:02;0.30;;;0.20;;
18653;SDS011;9456;47.824;16.228;2023-12-20T13:45:31;1.23;;;0.20;;
18653;SDS011;9456;47.824;16.228;2023-12-20T13:48:00;0.30;;;0.20;;
18653;SDS011;9456;47.824;16.228;2023-12-20T13:50:29;0.27;;;0.27;;
18653;SDS011;9456;47.824;16.228;2023-12-20T13:52:58;0.60;;;0.60;;
18653;SDS011;9456;47.824;16.228;2023-12-20T13:55:28;2.40;;;2.20;;
18653;SDS011;9456;47.824;16.228;2023-12-20T13:57:57;0.67;;;0.60;;
18653;SDS011;9456;47.824;16.228;2023-12-20T14:00:25;7.33;;;4.60;;
18653;SDS011;9456;47.824;16.228;2023-12-20T14:02:54;1.20;;;1.17;;
18653;SDS011;9456;47.824;16.228;2023-12-20T14:05:23;0.80;;;0.80;;
18653;SDS011;9456;47.824;16.228;2023-12-20T14:07:54;0.20;;;0.20;;
18653;SDS011;9456;47.824;16.228;2023-12-20T14:10:24;0.60;;;0.60;;
18653;SDS011;9456;47.824;16.228;2023-12-20T14:12:53;0.57;;;0.57;;
18653;SDS011;9456;47.824;16.228;2023-12-20T14:15:22;1.43;;;1.33;;
18653;SDS011;9456;47.824;16.228;2023-12-20T14:17:51;0.80;;;0.80;;
18653;SDS011;9456;47.824;16.228;2023-12-20T14:20:20;0.30;;;0.30;;
18653;SDS011;9456;47.824;16.228;2023-12-20T14:22:49;0.20;;;0.20;;
18653;SDS011;9456;47.824;16.228;2023-12-20T14:25:18;0.37;;;0.30;;
18653;SDS011;9456;47.824;16.228;2023-12-20T14:27:47;0.90;;;0.90;;
18653;SDS011;9456;47.824;16.228;2023-12-20T14:30:16;0.60;;;0.60;;
18653;SDS011;9456;47.824;16.228;2023-12-20T14:32:45;0.60;;;0.60;;
18653;SDS011;9456;47.824;16.228;2023-12-20T14:35:14;0.40;;;0.40;;
18653;SDS011;9456;47.824;16.228;2023-12-20T14:37:42;0.50;;;0.37;;
18653;SDS011;9456;47.824;16.228;2023-12-20T14:40:12;0.47;;;0.47;;
18653;SDS011;9456;47.824;16.228;2023-12-20T14:42:42;0.93;;;0.50;;
18653;SDS011;9456;47.824;16.228;2023-12-20T14:45:11;0.70;;;0.70;;